createdAt,value
2019-06-10T00:02:07.316Z,96132.78
2019-06-10T00:04:38.627Z,96123.22
2019-06-10T00:22:23.305Z,96096.83
2019-06-10T00:27:55.196Z,96101.63
2019-06-10T00:30:45.051Z,96097.52
2019-06-10T00:36:18.479Z,96087.11
2019-06-10T00:54:18.393Z,96121.16
2019-06-10T00:57:09.365Z,96121.81
2019-06-10T00:59:53.787Z,96132.66
2019-06-10T01:05:32.137Z,96125.88
2019-06-10T01:08:21.958Z,96116.94
2019-06-10T01:11:21.350Z,96114.89
2019-06-10T01:13:56.519Z,96114.95
2019-06-10T01:16:46.327Z,96104.95
2019-06-10T01:19:30.999Z,96144.02
2019-06-10T01:22:21.262Z,96129.84
2019-06-10T01:25:13.808Z,96127.91
2019-06-10T01:27:56.271Z,96128.95
2019-06-10T01:30:46.077Z,96141.92
2019-06-10T01:33:35.823Z,96130.17
2019-06-10T01:36:25.591Z,96143.42
2019-06-10T01:39:16.802Z,96136.58
2019-06-10T01:42:00.629Z,96148.12
2019-06-10T01:44:50.729Z,96161.67
2019-06-10T01:47:34.187Z,96146.15
2019-06-10T01:50:24.226Z,96162.23
2019-06-10T01:53:16.018Z,96164.55
2019-06-10T01:56:01.000Z,96182.13
2019-06-10T01:58:51.366Z,96166.56
2019-06-10T02:04:40.997Z,96142.09
2019-06-10T02:07:31.829Z,96133.50
2019-06-10T02:10:16.804Z,96122.30
2019-06-10T02:16:10.356Z,96103.28
2019-06-10T02:19:03.417Z,96098.92
2019-06-10T02:21:43.981Z,96084.72
2019-06-10T02:24:33.910Z,96086.29
2019-06-10T02:27:19.551Z,96077.13
2019-06-10T02:30:19.986Z,96067.67
2019-06-10T02:32:53.744Z,96065.45
2019-06-10T02:35:48.790Z,96041.22
2019-06-10T02:38:35.459Z,96064.44
2019-06-10T02:41:26.182Z,96060.33
2019-06-10T02:44:04.219Z,96067.41
2019-06-10T02:46:54.634Z,96065.02
2019-06-10T02:49:52.826Z,96064.83
2019-06-10T02:55:30.808Z,96090.80
2019-06-10T02:58:13.739Z,96073.03
2019-06-10T03:01:04.272Z,96102.94
2019-06-10T03:03:49.517Z,96078.39
2019-06-10T03:06:40.158Z,96099.05
2019-06-10T03:09:27.382Z,96103.07
2019-06-10T03:12:33.225Z,96106.23
2019-06-10T03:21:14.283Z,96077.23
2019-06-10T03:24:04.026Z,96078.06
2019-06-10T03:26:47.364Z,96081.05
2019-06-10T03:29:37.117Z,96053.64
2019-06-10T03:32:21.981Z,96056.83
2019-06-10T03:35:13.220Z,96081.86
2019-06-10T03:37:55.391Z,96069.66
2019-06-10T03:40:45.177Z,96063.76
2019-06-10T03:43:34.918Z,96055.68
2019-06-10T03:46:18.966Z,96057.44
2019-06-10T03:49:08.825Z,96058.16
2019-06-10T03:51:52.913Z,96056.69
2019-06-10T03:54:43.375Z,96025.13
2019-06-10T03:57:28.716Z,96055.59
2019-06-10T04:00:32.561Z,96039.25
2019-06-10T04:03:14.810Z,96045.22
2019-06-10T04:06:05.281Z,96032.47
2019-06-10T04:08:55.068Z,96019.12
2019-06-10T04:11:45.150Z,96026.77
2019-06-10T04:14:35.758Z,96028.33
2019-06-10T04:17:26.970Z,96022.66
2019-06-10T04:20:13.159Z,96011.80
2019-06-10T04:23:02.780Z,96013.20
2019-06-10T04:25:45.319Z,96018.03
2019-06-10T04:28:35.309Z,96029.80
2019-06-10T04:31:18.185Z,96031.65
2019-06-10T04:34:08.116Z,96033.77
2019-06-10T04:36:57.932Z,96022.70
2019-06-10T04:39:47.714Z,95994.06
2019-06-10T04:42:37.477Z,96015.17
2019-06-10T04:45:28.030Z,96020.93
2019-06-10T04:48:12.465Z,96026.91
2019-06-10T04:51:03.008Z,96040.87
2019-06-10T04:53:46.589Z,96048.47
2019-06-10T04:56:36.418Z,96039.80
2019-06-10T04:59:45.228Z,96019.83
2019-06-10T05:05:38.144Z,96053.70
2019-06-10T05:08:21.571Z,96059.71
2019-06-10T05:11:26.628Z,96054.67
2019-06-10T05:14:08.416Z,96066.95
2019-06-10T05:16:58.168Z,96077.59
2019-06-10T05:19:42.702Z,96079.64
2019-06-10T05:22:43.536Z,96065.74
2019-06-10T05:25:28.466Z,96065.41
2019-06-10T05:28:12.279Z,96071.61
2019-06-10T05:36:18.672Z,96064.22
2019-06-10T05:39:28.780Z,96060.69
2019-06-10T05:42:12.795Z,96040.52
2019-06-10T05:45:03.109Z,96076.84
2019-06-10T05:47:49.568Z,96080.36
2019-06-10T05:50:39.298Z,96071.94
2019-06-10T05:53:23.093Z,96065.04
2019-06-10T05:56:13.439Z,96076.05
2019-06-10T05:58:55.705Z,96083.27
2019-06-10T06:01:45.456Z,96050.16
2019-06-10T06:04:28.185Z,96072.83
2019-06-10T06:07:17.941Z,96120.14
2019-06-10T06:10:02.506Z,96128.02
2019-06-10T06:12:52.740Z,96118.24
2019-06-10T06:15:37.916Z,96120.40
2019-06-10T06:18:27.951Z,96124.63
2019-06-10T06:21:22.346Z,96136.44
2019-06-10T06:24:03.880Z,96147.45
2019-06-10T06:26:45.979Z,96113.70
2019-06-10T06:29:37.049Z,96115.70
2019-06-10T06:32:19.430Z,96109.55
2019-06-10T06:35:09.312Z,96097.13
2019-06-10T06:37:53.985Z,96079.58
2019-06-10T06:40:43.591Z,96074.52
2019-06-10T06:43:29.081Z,96080.67
2019-06-10T06:46:19.169Z,96108.33
2019-06-10T06:49:08.897Z,96106.75
2019-06-10T06:52:17.709Z,96115.17
2019-06-10T06:55:02.331Z,96122.11
2019-06-10T06:57:52.837Z,96117.06
2019-06-10T07:00:52.928Z,96112.22
2019-06-10T07:03:27.209Z,96124.78
2019-06-10T07:06:09.525Z,96137.22
2019-06-10T07:09:04.622Z,96132.38
2019-06-10T07:11:45.233Z,96135.63
2019-06-10T07:14:37.607Z,96134.10
2019-06-10T07:17:19.535Z,96106.16
2019-06-10T07:20:28.181Z,96094.98
2019-06-10T07:23:10.195Z,96093.84
2019-06-10T07:26:02.107Z,96087.78
2019-06-10T07:28:47.531Z,96081.55
2019-06-10T07:31:37.851Z,96080.02
2019-06-10T07:34:22.307Z,96058.63
2019-06-10T07:37:13.049Z,96043.23
2019-06-10T07:39:56.758Z,96059.40
2019-06-10T07:45:28.747Z,96047.38
2019-06-10T07:48:39.554Z,96035.19
2019-06-10T07:51:22.648Z,96021.07
2019-06-10T07:54:12.580Z,95989.09
2019-06-10T07:57:02.684Z,96006.45
2019-06-10T07:59:45.980Z,96001.80
2019-06-10T08:02:37.603Z,95986.63
2019-06-10T08:05:23.395Z,95999.77
2019-06-10T08:08:32.957Z,95993.63
2019-06-10T08:11:16.775Z,95968.45
2019-06-10T08:14:19.340Z,95945.27
2019-06-10T08:17:03.114Z,95900.56
2019-06-10T08:19:54.411Z,95880.13
2019-06-10T08:22:45.155Z,95885.41
2019-06-10T08:25:32.784Z,95911.11
2019-06-10T08:28:15.831Z,95898.50
2019-06-10T08:31:05.565Z,95903.55
2019-06-10T08:33:49.178Z,95893.47
2019-06-10T08:36:39.928Z,95887.56
2019-06-10T08:39:23.231Z,95888.16
2019-06-10T08:42:13.578Z,95884.63
2019-06-10T08:44:59.818Z,95868.49
2019-06-10T08:47:49.154Z,95850.53
2019-06-10T08:50:33.909Z,95854.45
2019-06-10T08:53:23.643Z,95846.30
2019-06-10T08:56:06.164Z,95836.45
2019-06-10T08:58:55.933Z,95840.34
2019-06-10T09:01:39.470Z,95831.69
2019-06-10T09:04:30.311Z,95834.41
2019-06-10T09:07:14.546Z,95840.66
2019-06-10T09:10:05.570Z,95856.02
2019-06-10T09:12:51.333Z,95868.95
2019-06-10T09:15:41.457Z,95883.47
2019-06-10T09:18:24.510Z,95867.41
2019-06-10T09:21:14.880Z,95887.59
2019-06-10T09:24:00.053Z,95888.31
2019-06-10T09:30:04.133Z,95854.91
2019-06-10T09:32:56.469Z,95861.16
2019-06-10T09:35:39.909Z,95873.43
2019-06-10T09:41:36.101Z,95834.31
2019-06-10T09:44:15.019Z,95820.19
2019-06-10T09:51:17.147Z,95818.88
2019-06-10T09:54:07.166Z,95851.77
2019-06-10T09:56:54.574Z,95823.58
2019-06-10T09:59:46.342Z,95890.20
2019-06-10T10:05:23.316Z,95870.49
2019-06-10T10:11:08.991Z,95877.00
2019-06-10T10:13:58.806Z,95879.69
2019-06-10T10:16:53.798Z,95868.95
2019-06-10T10:19:32.363Z,95866.84
2019-06-10T10:22:22.888Z,95860.50
2019-06-10T10:25:06.096Z,95852.17
2019-06-10T10:27:57.550Z,95840.31
2019-06-10T10:30:42.521Z,95860.05
2019-06-10T10:33:33.375Z,95842.02
2019-06-10T10:36:15.079Z,95807.91
2019-06-10T10:39:06.871Z,95811.94
2019-06-10T10:41:50.228Z,95838.92
2019-06-10T10:44:40.369Z,95842.80
2019-06-10T10:47:25.151Z,95876.47
2019-06-10T10:50:14.657Z,95894.55
2019-06-10T10:56:02.283Z,95863.58
2019-06-10T10:58:55.847Z,95841.17
2019-06-10T11:01:36.244Z,95806.36
2019-06-10T11:07:29.244Z,95826.65
2019-06-10T11:10:12.813Z,95805.81
2019-06-10T11:13:24.755Z,95778.53
2019-06-10T11:16:07.290Z,95772.75
2019-06-10T11:18:58.033Z,95755.09
2019-06-10T11:21:42.702Z,95748.08
2019-06-10T11:27:33.213Z,95733.10
2019-06-10T11:30:15.994Z,95766.16
2019-06-10T11:33:06.006Z,95785.56
2019-06-10T11:35:58.063Z,95787.09
2019-06-10T11:38:42.003Z,95784.33
2019-06-10T11:41:32.478Z,95764.23
2019-06-10T11:44:15.513Z,95793.95
2019-06-10T11:50:23.240Z,95816.64
2019-06-10T11:53:06.082Z,95840.92
2019-06-10T11:55:56.409Z,95830.28
2019-06-10T11:58:47.892Z,95812.25
2019-06-10T12:01:19.774Z,95821.52
2019-06-10T12:04:09.510Z,95848.42
2019-06-10T12:06:59.250Z,95870.80
2019-06-10T12:09:42.524Z,95902.46
2019-06-10T12:12:33.763Z,95903.59
2019-06-10T12:21:13.429Z,95900.03
2019-06-10T12:33:03.005Z,95884.20
2019-06-10T12:35:33.388Z,95855.84
2019-06-10T12:38:16.770Z,95880.44
2019-06-10T13:03:08.298Z,95840.01
2019-06-10T13:09:12.904Z,95799.09
2019-06-10T13:12:04.056Z,95818.87
2019-06-10T13:14:47.105Z,95836.72
2019-06-10T13:20:43.448Z,95866.72
2019-06-10T13:23:31.834Z,95848.73
2019-06-10T13:26:19.051Z,95865.48
2019-06-10T13:29:05.000Z,95866.11
2019-06-10T13:31:53.474Z,95868.25
2019-06-10T13:34:37.271Z,95850.66
2019-06-10T13:37:27.017Z,95854.20
2019-06-10T13:40:12.322Z,95834.96
2019-06-10T13:43:01.813Z,95839.02
2019-06-10T13:45:44.411Z,95828.20
2019-06-10T13:48:34.168Z,95843.06
2019-06-10T13:51:17.065Z,95824.31
2019-06-10T13:54:09.172Z,95839.09
2019-06-10T13:56:52.357Z,95821.82
2019-06-10T13:59:42.949Z,95780.11
2019-06-10T14:02:26.373Z,95790.98
2019-06-10T14:05:18.426Z,95749.17
2019-06-10T14:08:03.136Z,95758.52
2019-06-10T14:10:54.095Z,95750.36
2019-06-10T14:13:36.807Z,95733.28
2019-06-10T14:16:29.570Z,95744.67
2019-06-10T14:19:16.206Z,95735.16
2019-06-10T14:22:07.944Z,95730.94
2019-06-10T14:24:52.865Z,95722.70
2019-06-10T14:28:03.210Z,95715.16
2019-06-10T14:30:44.996Z,95741.89
2019-06-10T14:33:16.732Z,95749.88
2019-06-10T14:36:05.031Z,95743.64
2019-06-10T14:38:53.322Z,95742.30
2019-06-10T14:41:36.592Z,95725.16
2019-06-10T14:44:26.310Z,95741.81
2019-06-10T14:47:09.098Z,95716.43
2019-06-10T14:49:58.821Z,95727.34
2019-06-10T14:52:43.239Z,95704.59
2019-06-10T14:55:34.023Z,95663.55
2019-06-10T14:58:19.405Z,95674.02
2019-06-10T15:01:11.390Z,95673.38
2019-06-10T15:03:52.536Z,95701.56
2019-06-10T15:06:43.241Z,95752.81
2019-06-10T15:09:26.849Z,95758.97
2019-06-10T15:12:17.518Z,95757.70
2019-06-10T15:15:00.861Z,95781.34
2019-06-10T15:17:52.478Z,95800.77
2019-06-10T15:20:35.021Z,95821.77
2019-06-10T15:23:24.761Z,95806.03
2019-06-10T15:26:09.910Z,95806.23
2019-06-10T15:29:02.609Z,95782.58
2019-06-10T15:31:46.843Z,95784.00
2019-06-10T15:34:36.633Z,95772.42
2019-06-10T15:37:21.267Z,95776.50
2019-06-10T15:40:14.015Z,95761.69
2019-06-10T15:42:56.767Z,95748.23
2019-06-10T15:45:47.090Z,95739.66
2019-06-10T15:48:31.448Z,95713.68
2019-06-10T15:54:20.438Z,95721.09
2019-06-10T15:57:22.707Z,95691.92
2019-06-10T15:59:54.395Z,95693.34
2019-06-10T16:02:44.841Z,95690.23
2019-06-10T16:05:28.225Z,95661.41
2019-06-10T16:08:18.636Z,95689.11
2019-06-10T16:14:02.861Z,95689.02
2019-06-10T16:16:53.480Z,95729.09
2019-06-10T16:19:43.295Z,95747.28
2019-06-10T16:22:33.840Z,95758.66
2019-06-10T16:25:26.489Z,95762.45
2019-06-10T16:28:08.615Z,95760.16
2019-06-10T16:31:13.155Z,95770.80
2019-06-10T16:33:55.055Z,95786.16
2019-06-10T16:36:44.833Z,95788.63
2019-06-10T16:39:27.573Z,95790.41
2019-06-10T16:42:17.472Z,95774.51
2019-06-10T16:45:02.361Z,95770.80
2019-06-10T16:47:53.083Z,95777.64
2019-06-10T16:50:36.897Z,95782.23
2019-06-10T16:53:19.928Z,95760.45
2019-06-10T16:59:07.411Z,95787.36
2019-06-10T17:02:17.180Z,95790.65
2019-06-10T17:05:03.193Z,95790.91
2019-06-10T17:07:52.819Z,95777.23
2019-06-10T17:10:35.222Z,95771.58
2019-06-10T17:16:29.686Z,95767.92
2019-06-10T17:19:21.237Z,95765.53
2019-06-10T17:22:03.665Z,95759.66
2019-06-10T17:24:53.726Z,95764.34
2019-06-10T17:27:37.838Z,95762.14
2019-06-10T17:30:28.482Z,95759.33
2019-06-10T17:33:12.988Z,95750.87
2019-06-10T17:36:03.595Z,95746.16
2019-06-10T17:38:47.736Z,95757.61
2019-06-10T17:41:37.698Z,95743.52
2019-06-10T17:44:23.302Z,95726.61
2019-06-10T17:47:13.250Z,95701.52
2019-06-10T17:49:54.996Z,95734.14
2019-06-10T17:52:44.806Z,95739.28
2019-06-10T17:55:28.172Z,95740.33
2019-06-10T17:58:31.774Z,95743.41
2019-06-10T18:01:03.337Z,95748.47
2019-06-10T18:03:53.164Z,95727.59
2019-06-10T18:06:56.902Z,95750.83
2019-06-10T18:09:39.827Z,95709.41
2019-06-10T18:12:30.033Z,95737.70
2019-06-10T18:15:13.823Z,95735.55
2019-06-10T18:18:03.701Z,95731.28
2019-06-10T18:20:47.708Z,95715.31
2019-06-10T18:23:38.568Z,95689.52
2019-06-10T18:26:23.247Z,95720.91
2019-06-10T18:29:13.350Z,95729.58
2019-06-10T18:31:56.185Z,95749.55
2019-06-10T18:34:45.960Z,95752.45
2019-06-10T18:37:30.496Z,95762.98
2019-06-10T18:40:42.820Z,95762.36
2019-06-10T18:43:24.954Z,95733.46
2019-06-10T18:46:14.706Z,95721.02
2019-06-10T18:49:02.783Z,95732.30
2019-06-10T18:51:53.337Z,95728.05
2019-06-10T18:54:37.201Z,95707.77
2019-06-10T18:57:28.679Z,95705.08
2019-06-10T19:00:14.667Z,95722.36
2019-06-10T19:03:12.603Z,95743.23
2019-06-10T19:05:48.021Z,95756.83
2019-06-10T19:08:39.337Z,95732.95
2019-06-10T19:11:22.286Z,95755.20
2019-06-10T19:14:12.778Z,95765.70
2019-06-10T19:16:56.140Z,95790.45
2019-06-10T19:22:43.182Z,95756.09
2019-06-10T19:25:36.912Z,95768.45
2019-06-10T19:28:17.915Z,95775.43
2019-06-10T19:31:20.249Z,95761.93
2019-06-10T19:34:04.327Z,95767.31
2019-06-10T19:36:54.083Z,95796.64
2019-06-10T19:39:42.527Z,95759.18
2019-06-10T19:42:27.780Z,95753.25
2019-06-10T19:45:12.349Z,95781.52
2019-06-10T19:48:03.409Z,95779.91
2019-06-10T19:50:50.164Z,95818.19
2019-06-10T19:53:37.336Z,95820.09
2019-06-10T19:56:24.208Z,95815.63
2019-06-10T20:02:14.360Z,95838.48
2019-06-10T20:05:04.262Z,95861.19
2019-06-10T20:07:50.337Z,95862.13
2019-06-10T20:10:38.357Z,95861.61
2019-06-10T20:13:22.532Z,95836.17
2019-06-10T20:19:07.633Z,95812.94
2019-06-10T20:21:57.429Z,95793.33
2019-06-10T20:24:54.959Z,95720.77
2019-06-10T20:27:45.496Z,95755.66
2019-06-10T20:30:29.585Z,95791.84
2019-06-10T20:36:27.071Z,95810.67
2019-06-10T20:39:08.965Z,95790.72
2019-06-10T20:41:58.709Z,95726.09
2019-06-10T20:44:42.852Z,95706.21
2019-06-10T20:50:33.588Z,95691.09
2019-06-10T20:53:23.367Z,95717.80
2019-06-10T20:56:06.248Z,95762.25
2019-06-10T20:58:56.032Z,95772.84
2019-06-10T21:01:27.126Z,95780.80
2019-06-10T21:03:57.823Z,95788.16
2019-06-10T21:10:12.842Z,95820.86
2019-06-10T21:12:58.158Z,95804.11
2019-06-10T21:15:50.375Z,95817.77
2019-06-10T21:18:33.118Z,95814.44
2019-06-10T21:21:22.926Z,95803.47
2019-06-10T21:24:05.386Z,95774.25
2019-06-10T21:26:55.505Z,95744.59
2019-06-10T21:29:46.963Z,95768.77
2019-06-10T21:32:29.050Z,95780.88
2019-06-10T21:35:18.846Z,95833.30
2019-06-10T21:38:08.622Z,95843.91
2019-06-10T21:40:58.344Z,95836.52
2019-06-10T21:43:45.933Z,95802.37
2019-06-10T21:46:32.809Z,95812.27
2019-06-10T21:49:23.616Z,95821.86
2019-06-10T21:52:06.574Z,95816.54
2019-06-10T21:54:56.524Z,95795.83
2019-06-10T21:57:47.150Z,95768.53
2019-06-10T22:03:51.987Z,95736.00
2019-06-10T22:06:29.777Z,95771.92
2019-06-10T22:09:32.447Z,95765.52
2019-06-10T22:12:14.820Z,95796.52
2019-06-10T22:15:23.732Z,95783.30
2019-06-10T22:18:06.351Z,95756.98
2019-06-10T22:20:57.732Z,95724.26
2019-06-10T22:23:42.352Z,95748.09
2019-06-10T22:26:32.364Z,95740.14
2019-06-10T22:29:16.763Z,95746.02
2019-06-10T22:35:07.925Z,95724.95
2019-06-10T22:37:57.631Z,95728.88
2019-06-10T22:40:39.677Z,95726.73
2019-06-10T22:43:29.421Z,95717.50
2019-06-10T22:46:12.331Z,95734.23
2019-06-10T22:49:02.993Z,95724.30
2019-06-10T22:51:46.439Z,95719.52
2019-06-10T22:54:36.237Z,95737.56
2019-06-10T22:57:19.088Z,95764.77
2019-06-10T23:03:07.676Z,95809.70
2019-06-10T23:05:50.540Z,95821.80
2019-06-10T23:08:40.517Z,95801.49
2019-06-10T23:14:22.851Z,95767.56
2019-06-10T23:16:55.262Z,95756.86
2019-06-10T23:19:38.127Z,95776.04
2019-06-10T23:22:28.270Z,95769.78
2019-06-10T23:25:12.709Z,95765.02
2019-06-10T23:28:02.495Z,95709.58
2019-06-10T23:30:45.597Z,95717.68
2019-06-10T23:33:35.399Z,95719.89
2019-06-10T23:36:17.394Z,95718.22
2019-06-10T23:39:07.509Z,95733.70
2019-06-10T23:41:51.153Z,95745.12
2019-06-10T23:44:42.053Z,95733.61
2019-06-10T23:47:24.125Z,95746.47
2019-06-10T23:50:14.451Z,95800.00
2019-06-10T23:53:00.159Z,95828.09
2019-06-10T23:55:48.875Z,95841.19
2019-06-10T23:58:32.879Z,95832.20
